sensor_id;sensor_type;location;lat;lon;timestamp;P1;durP1;ratioP1;P2;durP2;ratioP2
25279;SDS011;13225;47.804;12.116;2023-05-29T00:00:31;12.65;;;6.68;;
25279;SDS011;13225;47.804;12.116;2023-05-29T00:02:57;7.68;;;5.68;;
25279;SDS011;13225;47.804;12.116;2023-05-29T00:05:23;7.65;;;4.13;;
25279;SDS011;13225;47.804;12.116;2023-05-29T00:07:49;8.88;;;4.60;;
25279;SDS011;13225;47.804;12.116;2023-05-29T00:10:15;7.75;;;4.82;;
25279;SDS011;13225;47.804;12.116;2023-05-29T00:12:41;13.40;;;5.10;;
25279;SDS011;13225;47.804;12.116;2023-05-29T00:15:08;8.07;;;5.20;;
25279;SDS011;13225;47.804;12.116;2023-05-29T00:17:35;8.73;;;4.82;;
25279;SDS011;13225;47.804;12.116;2023-05-29T00:20:01;9.70;;;4.47;;
25279;SDS011;13225;47.804;12.116;2023-05-29T00:22:37;10.15;;;4.80;;
25279;SDS011;13225;47.804;12.116;2023-05-29T00:25:05;7.32;;;4.32;;
25279;SDS011;13225;47.804;12.116;2023-05-29T00:27:32;7.65;;;4.35;;
25279;SDS011;13225;47.804;12.116;2023-05-29T00:29:59;8.60;;;4.65;;
25279;SDS011;13225;47.804;12.116;2023-05-29T00:32:24;8.98;;;4.63;;
25279;SDS011;13225;47.804;12.116;2023-05-29T00:34:50;10.80;;;5.30;;
25279;SDS011;13225;47.804;12.116;2023-05-29T00:37:16;9.43;;;5.25;;
25279;SDS011;13225;47.804;12.116;2023-05-29T00:39:42;10.55;;;5.47;;
25279;SDS011;13225;47.804;12.116;2023-05-29T00:42:08;9.77;;;5.07;;
25279;SDS011;13225;47.804;12.116;2023-05-29T00:44:34;11.88;;;5.15;;
25279;SDS011;13225;47.804;12.116;2023-05-29T00:47:00;7.72;;;4.65;;
25279;SDS011;13225;47.804;12.116;2023-05-29T00:49:26;8.20;;;4.78;;
25279;SDS011;13225;47.804;12.116;2023-05-29T00:51:52;9.95;;;5.07;;
25279;SDS011;13225;47.804;12.116;2023-05-29T00:54:21;9.05;;;5.10;;
25279;SDS011;13225;47.804;12.116;2023-05-29T00:56:52;11.63;;;5.00;;
25279;SDS011;13225;47.804;12.116;2023-05-29T00:59:17;9.25;;;4.28;;
25279;SDS011;13225;47.804;12.116;2023-05-29T01:01:46;8.15;;;4.65;;
25279;SDS011;13225;47.804;12.116;2023-05-29T01:04:14;7.32;;;4.35;;
25279;SDS011;13225;47.804;12.116;2023-05-29T01:06:41;8.45;;;5.10;;
25279;SDS011;13225;47.804;12.116;2023-05-29T01:09:07;10.27;;;4.95;;
25279;SDS011;13225;47.804;12.116;2023-05-29T01:14:29;9.63;;;4.45;;
25279;SDS011;13225;47.804;12.116;2023-05-29T01:22:34;7.70;;;4.80;;
25279;SDS011;13225;47.804;12.116;2023-05-29T01:25:30;8.73;;;5.05;;
25279;SDS011;13225;47.804;12.116;2023-05-29T01:28:01;10.38;;;4.28;;
25279;SDS011;13225;47.804;12.116;2023-05-29T01:30:29;11.30;;;5.15;;
25279;SDS011;13225;47.804;12.116;2023-05-29T01:32:57;9.40;;;5.00;;
25279;SDS011;13225;47.804;12.116;2023-05-29T01:35:25;8.20;;;5.15;;
25279;SDS011;13225;47.804;12.116;2023-05-29T01:37:50;11.05;;;5.35;;
25279;SDS011;13225;47.804;12.116;2023-05-29T01:40:16;8.05;;;4.80;;
25279;SDS011;13225;47.804;12.116;2023-05-29T01:42:42;9.60;;;5.63;;
25279;SDS011;13225;47.804;12.116;2023-05-29T01:45:08;7.75;;;5.00;;
25279;SDS011;13225;47.804;12.116;2023-05-29T01:47:35;9.15;;;5.15;;
25279;SDS011;13225;47.804;12.116;2023-05-29T01:50:01;8.57;;;4.78;;
25279;SDS011;13225;47.804;12.116;2023-05-29T01:52:29;9.48;;;5.50;;
25279;SDS011;13225;47.804;12.116;2023-05-29T01:54:55;7.82;;;4.20;;
25279;SDS011;13225;47.804;12.116;2023-05-29T01:57:20;9.82;;;5.13;;
25279;SDS011;13225;47.804;12.116;2023-05-29T01:59:46;8.32;;;5.05;;
25279;SDS011;13225;47.804;12.116;2023-05-29T02:02:12;8.10;;;4.32;;
25279;SDS011;13225;47.804;12.116;2023-05-29T02:04:38;8.80;;;4.45;;
25279;SDS011;13225;47.804;12.116;2023-05-29T02:07:03;8.82;;;5.28;;
25279;SDS011;13225;47.804;12.116;2023-05-29T02:09:29;10.77;;;4.70;;
25279;SDS011;13225;47.804;12.116;2023-05-29T02:11:55;10.25;;;4.60;;
25279;SDS011;13225;47.804;12.116;2023-05-29T02:14:21;8.60;;;5.15;;
25279;SDS011;13225;47.804;12.116;2023-05-29T02:16:49;8.70;;;4.78;;
25279;SDS011;13225;47.804;12.116;2023-05-29T02:19:16;8.75;;;5.05;;
25279;SDS011;13225;47.804;12.116;2023-05-29T02:21:43;9.57;;;5.05;;
25279;SDS011;13225;47.804;12.116;2023-05-29T02:24:09;8.38;;;5.28;;
25279;SDS011;13225;47.804;12.116;2023-05-29T02:26:34;8.52;;;5.35;;
25279;SDS011;13225;47.804;12.116;2023-05-29T02:29:03;11.20;;;4.70;;
25279;SDS011;13225;47.804;12.116;2023-05-29T02:31:30;10.95;;;4.97;;
25279;SDS011;13225;47.804;12.116;2023-05-29T02:33:56;10.57;;;4.95;;
25279;SDS011;13225;47.804;12.116;2023-05-29T02:36:22;8.85;;;5.45;;
25279;SDS011;13225;47.804;12.116;2023-05-29T02:38:48;8.50;;;5.20;;
25279;SDS011;13225;47.804;12.116;2023-05-29T02:41:13;8.50;;;5.20;;
25279;SDS011;13225;47.804;12.116;2023-05-29T02:43:39;9.23;;;5.32;;
25279;SDS011;13225;47.804;12.116;2023-05-29T02:46:04;9.55;;;5.50;;
25279;SDS011;13225;47.804;12.116;2023-05-29T02:48:30;12.82;;;5.72;;
25279;SDS011;13225;47.804;12.116;2023-05-29T02:50:56;9.38;;;5.22;;
25279;SDS011;13225;47.804;12.116;2023-05-29T02:53:21;11.27;;;5.13;;
25279;SDS011;13225;47.804;12.116;2023-05-29T02:55:48;8.80;;;4.85;;
25279;SDS011;13225;47.804;12.116;2023-05-29T02:58:14;9.75;;;5.40;;
25279;SDS011;13225;47.804;12.116;2023-05-29T03:00:41;9.10;;;5.07;;
25279;SDS011;13225;47.804;12.116;2023-05-29T03:03:07;10.02;;;5.60;;
25279;SDS011;13225;47.804;12.116;2023-05-29T03:05:32;10.80;;;5.45;;
25279;SDS011;13225;47.804;12.116;2023-05-29T03:07:58;8.55;;;4.93;;
25279;SDS011;13225;47.804;12.116;2023-05-29T03:10:23;9.80;;;5.07;;
25279;SDS011;13225;47.804;12.116;2023-05-29T03:12:49;11.93;;;5.72;;
25279;SDS011;13225;47.804;12.116;2023-05-29T03:15:16;9.90;;;5.40;;
25279;SDS011;13225;47.804;12.116;2023-05-29T03:17:44;11.85;;;6.20;;
25279;SDS011;13225;47.804;12.116;2023-05-29T03:20:10;11.90;;;6.00;;
25279;SDS011;13225;47.804;12.116;2023-05-29T03:22:36;11.43;;;5.32;;
25279;SDS011;13225;47.804;12.116;2023-05-29T03:25:02;9.35;;;5.10;;
25279;SDS011;13225;47.804;12.116;2023-05-29T03:27:28;9.02;;;4.72;;
25279;SDS011;13225;47.804;12.116;2023-05-29T03:29:55;10.38;;;5.15;;
25279;SDS011;13225;47.804;12.116;2023-05-29T03:32:20;9.48;;;4.78;;
25279;SDS011;13225;47.804;12.116;2023-05-29T03:34:46;12.15;;;5.30;;
25279;SDS011;13225;47.804;12.116;2023-05-29T03:37:12;11.20;;;5.13;;
25279;SDS011;13225;47.804;12.116;2023-05-29T03:39:38;9.70;;;5.00;;
25279;SDS011;13225;47.804;12.116;2023-05-29T03:42:04;9.68;;;4.72;;
25279;SDS011;13225;47.804;12.116;2023-05-29T03:44:30;10.02;;;5.40;;
25279;SDS011;13225;47.804;12.116;2023-05-29T03:46:55;9.95;;;6.20;;
25279;SDS011;13225;47.804;12.116;2023-05-29T03:49:21;10.82;;;5.53;;
25279;SDS011;13225;47.804;12.116;2023-05-29T03:51:46;10.95;;;5.90;;
25279;SDS011;13225;47.804;12.116;2023-05-29T03:54:12;13.48;;;5.40;;
25279;SDS011;13225;47.804;12.116;2023-05-29T03:56:38;9.73;;;5.00;;
25279;SDS011;13225;47.804;12.116;2023-05-29T03:59:03;13.93;;;5.60;;
25279;SDS011;13225;47.804;12.116;2023-05-29T04:01:29;8.38;;;4.43;;
25279;SDS011;13225;47.804;12.116;2023-05-29T04:03:54;8.73;;;4.70;;
25279;SDS011;13225;47.804;12.116;2023-05-29T04:06:20;7.55;;;4.38;;
25279;SDS011;13225;47.804;12.116;2023-05-29T04:08:46;11.75;;;4.97;;
25279;SDS011;13225;47.804;12.116;2023-05-29T04:11:13;8.90;;;4.40;;
25279;SDS011;13225;47.804;12.116;2023-05-29T04:13:39;8.23;;;4.85;;
25279;SDS011;13225;47.804;12.116;2023-05-29T04:16:05;9.55;;;4.85;;
25279;SDS011;13225;47.804;12.116;2023-05-29T04:18:31;8.65;;;4.13;;
25279;SDS011;13225;47.804;12.116;2023-05-29T04:20:57;7.68;;;4.10;;
25279;SDS011;13225;47.804;12.116;2023-05-29T04:23:23;6.50;;;4.25;;
25279;SDS011;13225;47.804;12.116;2023-05-29T04:25:48;9.02;;;4.25;;
25279;SDS011;13225;47.804;12.116;2023-05-29T04:28:15;7.80;;;4.50;;
25279;SDS011;13225;47.804;12.116;2023-05-29T04:30:42;8.93;;;4.18;;
25279;SDS011;13225;47.804;12.116;2023-05-29T04:33:07;9.98;;;4.57;;
25279;SDS011;13225;47.804;12.116;2023-05-29T04:35:34;7.55;;;4.20;;
25279;SDS011;13225;47.804;12.116;2023-05-29T04:38:00;7.38;;;4.15;;
25279;SDS011;13225;47.804;12.116;2023-05-29T04:40:26;7.93;;;4.50;;
25279;SDS011;13225;47.804;12.116;2023-05-29T04:42:51;6.93;;;4.22;;
25279;SDS011;13225;47.804;12.116;2023-05-29T04:45:19;6.75;;;4.28;;
25279;SDS011;13225;47.804;12.116;2023-05-29T04:47:45;7.25;;;4.10;;
25279;SDS011;13225;47.804;12.116;2023-05-29T04:50:14;5.68;;;3.83;;
25279;SDS011;13225;47.804;12.116;2023-05-29T04:52:42;6.82;;;4.05;;
25279;SDS011;13225;47.804;12.116;2023-05-29T04:55:09;6.72;;;4.35;;
25279;SDS011;13225;47.804;12.116;2023-05-29T04:57:35;7.20;;;4.03;;
25279;SDS011;13225;47.804;12.116;2023-05-29T05:00:01;6.75;;;4.50;;
25279;SDS011;13225;47.804;12.116;2023-05-29T05:02:31;7.15;;;4.38;;
25279;SDS011;13225;47.804;12.116;2023-05-29T05:04:57;11.05;;;4.30;;
25279;SDS011;13225;47.804;12.116;2023-05-29T05:07:23;12.90;;;5.18;;
25279;SDS011;13225;47.804;12.116;2023-05-29T05:09:49;11.98;;;4.93;;
25279;SDS011;13225;47.804;12.116;2023-05-29T05:12:15;14.75;;;4.72;;
25279;SDS011;13225;47.804;12.116;2023-05-29T05:14:40;7.45;;;4.43;;
25279;SDS011;13225;47.804;12.116;2023-05-29T05:17:06;9.23;;;4.40;;
25279;SDS011;13225;47.804;12.116;2023-05-29T05:19:32;8.15;;;4.30;;
25279;SDS011;13225;47.804;12.116;2023-05-29T05:21:57;6.55;;;4.50;;
25279;SDS011;13225;47.804;12.116;2023-05-29T05:24:23;9.15;;;5.40;;
25279;SDS011;13225;47.804;12.116;2023-05-29T05:26:48;7.32;;;5.00;;
25279;SDS011;13225;47.804;12.116;2023-05-29T05:29:14;8.07;;;4.60;;
25279;SDS011;13225;47.804;12.116;2023-05-29T05:31:40;9.05;;;5.18;;
25279;SDS011;13225;47.804;12.116;2023-05-29T05:34:05;7.90;;;4.80;;
25279;SDS011;13225;47.804;12.116;2023-05-29T05:36:31;7.50;;;5.00;;
25279;SDS011;13225;47.804;12.116;2023-05-29T05:38:57;9.32;;;5.82;;
25279;SDS011;13225;47.804;12.116;2023-05-29T05:41:23;12.38;;;5.45;;
25279;SDS011;13225;47.804;12.116;2023-05-29T05:43:49;9.27;;;5.45;;
25279;SDS011;13225;47.804;12.116;2023-05-29T05:46:14;9.68;;;5.20;;
25279;SDS011;13225;47.804;12.116;2023-05-29T05:48:42;8.38;;;5.30;;
25279;SDS011;13225;47.804;12.116;2023-05-29T05:51:08;10.48;;;4.80;;
25279;SDS011;13225;47.804;12.116;2023-05-29T05:53:33;7.72;;;4.70;;
25279;SDS011;13225;47.804;12.116;2023-05-29T05:55:59;12.20;;;5.25;;
25279;SDS011;13225;47.804;12.116;2023-05-29T05:58:25;9.32;;;4.65;;
25279;SDS011;13225;47.804;12.116;2023-05-29T06:00:51;8.48;;;4.43;;
25279;SDS011;13225;47.804;12.116;2023-05-29T06:03:17;10.30;;;5.35;;
25279;SDS011;13225;47.804;12.116;2023-05-29T06:05:43;8.70;;;4.80;;
25279;SDS011;13225;47.804;12.116;2023-05-29T06:08:08;8.98;;;5.10;;
25279;SDS011;13225;47.804;12.116;2023-05-29T06:10:34;7.38;;;4.72;;
25279;SDS011;13225;47.804;12.116;2023-05-29T06:13:00;9.20;;;5.65;;
25279;SDS011;13225;47.804;12.116;2023-05-29T06:15:25;10.18;;;5.43;;
25279;SDS011;13225;47.804;12.116;2023-05-29T06:17:51;8.05;;;5.30;;
25279;SDS011;13225;47.804;12.116;2023-05-29T06:20:17;9.77;;;5.22;;
25279;SDS011;13225;47.804;12.116;2023-05-29T06:22:44;7.95;;;5.20;;
25279;SDS011;13225;47.804;12.116;2023-05-29T06:25:15;11.02;;;5.05;;
25279;SDS011;13225;47.804;12.116;2023-05-29T06:27:44;10.27;;;5.60;;
25279;SDS011;13225;47.804;12.116;2023-05-29T06:30:10;12.80;;;5.68;;
25279;SDS011;13225;47.804;12.116;2023-05-29T06:32:36;9.00;;;5.55;;
25279;SDS011;13225;47.804;12.116;2023-05-29T06:35:02;9.95;;;5.40;;
25279;SDS011;13225;47.804;12.116;2023-05-29T06:37:28;9.95;;;4.88;;
25279;SDS011;13225;47.804;12.116;2023-05-29T06:39:54;9.00;;;5.30;;
25279;SDS011;13225;47.804;12.116;2023-05-29T06:42:19;8.52;;;5.20;;
25279;SDS011;13225;47.804;12.116;2023-05-29T06:44:47;9.48;;;4.93;;
25279;SDS011;13225;47.804;12.116;2023-05-29T06:47:12;8.18;;;5.10;;
25279;SDS011;13225;47.804;12.116;2023-05-29T06:49:38;11.05;;;5.65;;
25279;SDS011;13225;47.804;12.116;2023-05-29T06:52:03;11.40;;;5.93;;
25279;SDS011;13225;47.804;12.116;2023-05-29T06:54:29;10.43;;;5.75;;
25279;SDS011;13225;47.804;12.116;2023-05-29T06:56:55;11.02;;;5.68;;
25279;SDS011;13225;47.804;12.116;2023-05-29T06:59:21;9.68;;;5.03;;
25279;SDS011;13225;47.804;12.116;2023-05-29T07:01:47;8.45;;;5.82;;
25279;SDS011;13225;47.804;12.116;2023-05-29T07:04:13;9.70;;;5.60;;
25279;SDS011;13225;47.804;12.116;2023-05-29T07:06:38;11.82;;;5.40;;
25279;SDS011;13225;47.804;12.116;2023-05-29T07:09:04;9.73;;;5.38;;
25279;SDS011;13225;47.804;12.116;2023-05-29T07:11:30;8.63;;;5.10;;
25279;SDS011;13225;47.804;12.116;2023-05-29T07:13:55;13.68;;;5.60;;
25279;SDS011;13225;47.804;12.116;2023-05-29T07:16:21;9.95;;;5.72;;
25279;SDS011;13225;47.804;12.116;2023-05-29T07:18:47;11.18;;;5.55;;
25279;SDS011;13225;47.804;12.116;2023-05-29T07:21:12;10.70;;;5.18;;
25279;SDS011;13225;47.804;12.116;2023-05-29T07:23:39;10.60;;;5.40;;
25279;SDS011;13225;47.804;12.116;2023-05-29T07:26:05;10.77;;;5.43;;
25279;SDS011;13225;47.804;12.116;2023-05-29T07:28:30;11.43;;;5.80;;
25279;SDS011;13225;47.804;12.116;2023-05-29T07:30:56;9.45;;;5.57;;
25279;SDS011;13225;47.804;12.116;2023-05-29T07:33:22;11.82;;;5.75;;
25279;SDS011;13225;47.804;12.116;2023-05-29T07:35:47;10.75;;;5.80;;
25279;SDS011;13225;47.804;12.116;2023-05-29T07:38:13;11.20;;;5.88;;
25279;SDS011;13225;47.804;12.116;2023-05-29T07:40:38;7.22;;;5.35;;
25279;SDS011;13225;47.804;12.116;2023-05-29T07:43:04;10.45;;;5.40;;
25279;SDS011;13225;47.804;12.116;2023-05-29T07:45:29;11.05;;;6.15;;
25279;SDS011;13225;47.804;12.116;2023-05-29T07:47:55;10.75;;;5.63;;
25279;SDS011;13225;47.804;12.116;2023-05-29T07:50:21;9.75;;;5.50;;
25279;SDS011;13225;47.804;12.116;2023-05-29T07:52:46;10.02;;;5.80;;
25279;SDS011;13225;47.804;12.116;2023-05-29T07:55:12;12.57;;;6.20;;
25279;SDS011;13225;47.804;12.116;2023-05-29T07:57:38;10.63;;;6.22;;
25279;SDS011;13225;47.804;12.116;2023-05-29T08:00:04;10.30;;;6.35;;
25279;SDS011;13225;47.804;12.116;2023-05-29T08:02:34;9.13;;;5.97;;
25279;SDS011;13225;47.804;12.116;2023-05-29T08:05:02;9.32;;;5.63;;
25279;SDS011;13225;47.804;12.116;2023-05-29T08:07:28;8.65;;;5.65;;
25279;SDS011;13225;47.804;12.116;2023-05-29T08:09:54;8.85;;;5.80;;
25279;SDS011;13225;47.804;12.116;2023-05-29T08:12:20;10.57;;;5.55;;
25279;SDS011;13225;47.804;12.116;2023-05-29T08:14:46;11.98;;;5.88;;
25279;SDS011;13225;47.804;12.116;2023-05-29T08:17:11;9.80;;;6.00;;
25279;SDS011;13225;47.804;12.116;2023-05-29T08:19:37;11.95;;;6.28;;
25279;SDS011;13225;47.804;12.116;2023-05-29T08:22:02;8.52;;;5.75;;
25279;SDS011;13225;47.804;12.116;2023-05-29T08:24:28;8.98;;;5.43;;
25279;SDS011;13225;47.804;12.116;2023-05-29T08:26:54;9.05;;;5.68;;
25279;SDS011;13225;47.804;12.116;2023-05-29T08:29:19;9.05;;;5.80;;
25279;SDS011;13225;47.804;12.116;2023-05-29T08:31:45;11.63;;;5.47;;
25279;SDS011;13225;47.804;12.116;2023-05-29T08:34:11;8.27;;;5.03;;
25279;SDS011;13225;47.804;12.116;2023-05-29T08:36:36;10.90;;;5.18;;
25279;SDS011;13225;47.804;12.116;2023-05-29T08:39:02;10.95;;;5.72;;
25279;SDS011;13225;47.804;12.116;2023-05-29T08:41:28;11.68;;;5.45;;
25279;SDS011;13225;47.804;12.116;2023-05-29T08:44:09;10.00;;;5.25;;
25279;SDS011;13225;47.804;12.116;2023-05-29T08:46:43;8.82;;;5.00;;
25279;SDS011;13225;47.804;12.116;2023-05-29T08:49:10;8.73;;;5.28;;
25279;SDS011;13225;47.804;12.116;2023-05-29T08:51:41;12.32;;;6.05;;
25279;SDS011;13225;47.804;12.116;2023-05-29T08:54:11;9.80;;;5.47;;
25279;SDS011;13225;47.804;12.116;2023-05-29T08:56:40;8.95;;;5.03;;
25279;SDS011;13225;47.804;12.116;2023-05-29T08:59:05;10.02;;;5.25;;
25279;SDS011;13225;47.804;12.116;2023-05-29T09:01:33;7.70;;;5.28;;
25279;SDS011;13225;47.804;12.116;2023-05-29T09:04:00;10.02;;;5.85;;
25279;SDS011;13225;47.804;12.116;2023-05-29T09:06:26;8.25;;;5.38;;
25279;SDS011;13225;47.804;12.116;2023-05-29T09:08:53;8.85;;;5.65;;
25279;SDS011;13225;47.804;12.116;2023-05-29T09:11:18;7.82;;;5.13;;
25279;SDS011;13225;47.804;12.116;2023-05-29T09:13:46;9.73;;;5.65;;
25279;SDS011;13225;47.804;12.116;2023-05-29T09:16:11;7.32;;;4.97;;
25279;SDS011;13225;47.804;12.116;2023-05-29T09:18:37;8.40;;;4.68;;
25279;SDS011;13225;47.804;12.116;2023-05-29T09:21:06;7.70;;;4.80;;
25279;SDS011;13225;47.804;12.116;2023-05-29T09:23:35;7.80;;;4.63;;
25279;SDS011;13225;47.804;12.116;2023-05-29T09:26:02;6.82;;;4.15;;
25279;SDS011;13225;47.804;12.116;2023-05-29T09:28:29;10.75;;;4.35;;
25279;SDS011;13225;47.804;12.116;2023-05-29T09:30:56;8.10;;;4.13;;
25279;SDS011;13225;47.804;12.116;2023-05-29T09:33:22;6.97;;;4.22;;
25279;SDS011;13225;47.804;12.116;2023-05-29T09:35:48;8.48;;;4.70;;
25279;SDS011;13225;47.804;12.116;2023-05-29T09:38:18;7.00;;;4.32;;
25279;SDS011;13225;47.804;12.116;2023-05-29T09:40:44;9.35;;;5.00;;
25279;SDS011;13225;47.804;12.116;2023-05-29T09:43:17;7.93;;;4.07;;
25279;SDS011;13225;47.804;12.116;2023-05-29T09:45:45;7.55;;;4.53;;
25279;SDS011;13225;47.804;12.116;2023-05-29T09:48:15;7.20;;;4.00;;
25279;SDS011;13225;47.804;12.116;2023-05-29T09:50:43;7.50;;;4.35;;
25279;SDS011;13225;47.804;12.116;2023-05-29T09:55:44;6.57;;;3.78;;
25279;SDS011;13225;47.804;12.116;2023-05-29T09:58:11;6.55;;;4.15;;
25279;SDS011;13225;47.804;12.116;2023-05-29T10:00:39;5.50;;;3.50;;
25279;SDS011;13225;47.804;12.116;2023-05-29T10:03:06;6.50;;;3.85;;
25279;SDS011;13225;47.804;12.116;2023-05-29T10:05:32;8.20;;;4.28;;
25279;SDS011;13225;47.804;12.116;2023-05-29T10:07:58;6.70;;;3.63;;
25279;SDS011;13225;47.804;12.116;2023-05-29T10:10:27;5.63;;;4.07;;
25279;SDS011;13225;47.804;12.116;2023-05-29T10:12:54;7.68;;;3.88;;
25279;SDS011;13225;47.804;12.116;2023-05-29T10:15:22;6.80;;;4.60;;
25279;SDS011;13225;47.804;12.116;2023-05-29T10:17:50;7.82;;;3.90;;
25279;SDS011;13225;47.804;12.116;2023-05-29T10:20:18;7.35;;;4.13;;
25279;SDS011;13225;47.804;12.116;2023-05-29T10:22:45;5.32;;;3.40;;
25279;SDS011;13225;47.804;12.116;2023-05-29T10:25:13;7.95;;;3.67;;
25279;SDS011;13225;47.804;12.116;2023-05-29T10:27:42;7.53;;;3.70;;
25279;SDS011;13225;47.804;12.116;2023-05-29T10:32:38;5.95;;;3.28;;
25279;SDS011;13225;47.804;12.116;2023-05-29T10:35:29;8.80;;;4.47;;
25279;SDS011;13225;47.804;12.116;2023-05-29T10:38:10;7.22;;;3.90;;
25279;SDS011;13225;47.804;12.116;2023-05-29T10:40:38;6.40;;;3.33;;
25279;SDS011;13225;47.804;12.116;2023-05-29T10:43:04;5.53;;;3.65;;
25279;SDS011;13225;47.804;12.116;2023-05-29T10:50:41;7.60;;;3.60;;
25279;SDS011;13225;47.804;12.116;2023-05-29T10:53:08;7.50;;;3.67;;
25279;SDS011;13225;47.804;12.116;2023-05-29T10:55:35;6.10;;;4.05;;
25279;SDS011;13225;47.804;12.116;2023-05-29T10:58:09;5.88;;;3.53;;
25279;SDS011;13225;47.804;12.116;2023-05-29T11:00:49;6.13;;;3.60;;
25279;SDS011;13225;47.804;12.116;2023-05-29T11:03:22;6.22;;;3.35;;
25279;SDS011;13225;47.804;12.116;2023-05-29T11:06:01;7.00;;;3.80;;
25279;SDS011;13225;47.804;12.116;2023-05-29T11:08:46;8.02;;;3.67;;
25279;SDS011;13225;47.804;12.116;2023-05-29T11:13:52;7.38;;;3.60;;
25279;SDS011;13225;47.804;12.116;2023-05-29T11:16:40;6.30;;;4.22;;
25279;SDS011;13225;47.804;12.116;2023-05-29T11:19:08;8.57;;;4.13;;
25279;SDS011;13225;47.804;12.116;2023-05-29T11:24:27;6.75;;;3.80;;
25279;SDS011;13225;47.804;12.116;2023-05-29T11:26:55;5.38;;;3.60;;
25279;SDS011;13225;47.804;12.116;2023-05-29T11:29:30;5.63;;;3.83;;
25279;SDS011;13225;47.804;12.116;2023-05-29T11:32:02;5.25;;;3.25;;
25279;SDS011;13225;47.804;12.116;2023-05-29T11:34:29;5.65;;;3.60;;
25279;SDS011;13225;47.804;12.116;2023-05-29T11:36:56;5.97;;;3.60;;
25279;SDS011;13225;47.804;12.116;2023-05-29T11:39:26;6.45;;;3.45;;
25279;SDS011;13225;47.804;12.116;2023-05-29T11:41:52;3.78;;;3.03;;
25279;SDS011;13225;47.804;12.116;2023-05-29T11:44:18;5.78;;;3.42;;
25279;SDS011;13225;47.804;12.116;2023-05-29T11:46:44;7.78;;;3.88;;
25279;SDS011;13225;47.804;12.116;2023-05-29T11:49:09;8.07;;;4.00;;
25279;SDS011;13225;47.804;12.116;2023-05-29T11:51:35;6.43;;;3.63;;
25279;SDS011;13225;47.804;12.116;2023-05-29T11:54:01;8.13;;;3.67;;
25279;SDS011;13225;47.804;12.116;2023-05-29T11:56:27;5.57;;;4.25;;
25279;SDS011;13225;47.804;12.116;2023-05-29T11:58:54;7.22;;;3.78;;
25279;SDS011;13225;47.804;12.116;2023-05-29T12:01:24;6.15;;;3.10;;
25279;SDS011;13225;47.804;12.116;2023-05-29T12:03:51;5.70;;;3.55;;
25279;SDS011;13225;47.804;12.116;2023-05-29T12:06:30;7.20;;;4.15;;
25279;SDS011;13225;47.804;12.116;2023-05-29T12:09:02;5.20;;;3.35;;
25279;SDS011;13225;47.804;12.116;2023-05-29T12:11:29;4.75;;;2.92;;
25279;SDS011;13225;47.804;12.116;2023-05-29T12:13:55;8.75;;;3.40;;
25279;SDS011;13225;47.804;12.116;2023-05-29T12:16:26;5.05;;;3.53;;
25279;SDS011;13225;47.804;12.116;2023-05-29T12:18:53;6.55;;;3.88;;
25279;SDS011;13225;47.804;12.116;2023-05-29T12:21:21;5.68;;;3.75;;
25279;SDS011;13225;47.804;12.116;2023-05-29T12:23:47;5.90;;;3.80;;
25279;SDS011;13225;47.804;12.116;2023-05-29T12:26:13;6.32;;;3.70;;
25279;SDS011;13225;47.804;12.116;2023-05-29T12:28:44;5.82;;;3.72;;
25279;SDS011;13225;47.804;12.116;2023-05-29T12:31:10;6.53;;;4.10;;
25279;SDS011;13225;47.804;12.116;2023-05-29T12:33:36;5.47;;;3.80;;
25279;SDS011;13225;47.804;12.116;2023-05-29T12:36:08;6.38;;;3.83;;
25279;SDS011;13225;47.804;12.116;2023-05-29T12:38:53;7.70;;;3.80;;
25279;SDS011;13225;47.804;12.116;2023-05-29T12:43:55;6.78;;;3.60;;
25279;SDS011;13225;47.804;12.116;2023-05-29T12:46:23;5.43;;;3.97;;
25279;SDS011;13225;47.804;12.116;2023-05-29T12:48:52;4.78;;;3.47;;
25279;SDS011;13225;47.804;12.116;2023-05-29T12:51:27;6.22;;;3.75;;
25279;SDS011;13225;47.804;12.116;2023-05-29T12:53:53;5.10;;;3.37;;
25279;SDS011;13225;47.804;12.116;2023-05-29T12:56:23;5.65;;;3.80;;
25279;SDS011;13225;47.804;12.116;2023-05-29T12:58:51;6.00;;;3.30;;
25279;SDS011;13225;47.804;12.116;2023-05-29T13:01:17;6.38;;;4.03;;
25279;SDS011;13225;47.804;12.116;2023-05-29T13:03:43;4.97;;;3.88;;
25279;SDS011;13225;47.804;12.116;2023-05-29T13:06:09;5.72;;;3.50;;
25279;SDS011;13225;47.804;12.116;2023-05-29T13:08:35;5.93;;;4.00;;
25279;SDS011;13225;47.804;12.116;2023-05-29T13:11:01;5.72;;;3.78;;
25279;SDS011;13225;47.804;12.116;2023-05-29T13:13:27;5.53;;;3.70;;
25279;SDS011;13225;47.804;12.116;2023-05-29T13:15:52;6.28;;;3.72;;
25279;SDS011;13225;47.804;12.116;2023-05-29T13:18:18;5.22;;;4.18;;
25279;SDS011;13225;47.804;12.116;2023-05-29T13:20:44;6.00;;;3.70;;
25279;SDS011;13225;47.804;12.116;2023-05-29T13:23:09;5.40;;;3.80;;
25279;SDS011;13225;47.804;12.116;2023-05-29T13:25:35;4.32;;;3.78;;
25279;SDS011;13225;47.804;12.116;2023-05-29T13:28:00;6.40;;;4.03;;
25279;SDS011;13225;47.804;12.116;2023-05-29T13:30:26;5.38;;;4.00;;
25279;SDS011;13225;47.804;12.116;2023-05-29T13:32:52;4.65;;;3.50;;
25279;SDS011;13225;47.804;12.116;2023-05-29T13:35:18;6.18;;;3.63;;
25279;SDS011;13225;47.804;12.116;2023-05-29T13:37:44;4.38;;;3.50;;
25279;SDS011;13225;47.804;12.116;2023-05-29T13:40:10;4.72;;;3.25;;
25279;SDS011;13225;47.804;12.116;2023-05-29T13:42:37;4.70;;;3.35;;
25279;SDS011;13225;47.804;12.116;2023-05-29T13:45:04;6.50;;;3.30;;
25279;SDS011;13225;47.804;12.116;2023-05-29T13:47:31;4.07;;;3.45;;
25279;SDS011;13225;47.804;12.116;2023-05-29T13:49:57;6.07;;;3.00;;
25279;SDS011;13225;47.804;12.116;2023-05-29T13:52:23;5.00;;;3.70;;
25279;SDS011;13225;47.804;12.116;2023-05-29T13:54:50;5.25;;;3.30;;
25279;SDS011;13225;47.804;12.116;2023-05-29T13:57:15;5.93;;;3.00;;
25279;SDS011;13225;47.804;12.116;2023-05-29T13:59:41;4.70;;;3.15;;
25279;SDS011;13225;47.804;12.116;2023-05-29T14:02:06;5.78;;;3.58;;
25279;SDS011;13225;47.804;12.116;2023-05-29T14:04:33;4.93;;;2.70;;
25279;SDS011;13225;47.804;12.116;2023-05-29T14:06:59;6.30;;;3.78;;
25279;SDS011;13225;47.804;12.116;2023-05-29T14:09:25;4.43;;;3.13;;
25279;SDS011;13225;47.804;12.116;2023-05-29T14:11:54;5.32;;;3.50;;
25279;SDS011;13225;47.804;12.116;2023-05-29T14:14:20;5.22;;;3.10;;
25279;SDS011;13225;47.804;12.116;2023-05-29T14:16:46;4.65;;;3.45;;
25279;SDS011;13225;47.804;12.116;2023-05-29T14:19:12;7.78;;;3.08;;
25279;SDS011;13225;47.804;12.116;2023-05-29T14:21:38;5.45;;;3.03;;
25279;SDS011;13225;47.804;12.116;2023-05-29T14:24:03;5.35;;;3.45;;
25279;SDS011;13225;47.804;12.116;2023-05-29T14:26:29;5.07;;;3.20;;
25279;SDS011;13225;47.804;12.116;2023-05-29T14:28:55;4.15;;;3.10;;
25279;SDS011;13225;47.804;12.116;2023-05-29T14:31:21;6.68;;;3.75;;
25279;SDS011;13225;47.804;12.116;2023-05-29T14:33:46;5.15;;;3.30;;
25279;SDS011;13225;47.804;12.116;2023-05-29T14:36:12;4.13;;;3.50;;
25279;SDS011;13225;47.804;12.116;2023-05-29T14:38:37;5.07;;;3.72;;
25279;SDS011;13225;47.804;12.116;2023-05-29T14:41:03;5.45;;;3.58;;
25279;SDS011;13225;47.804;12.116;2023-05-29T14:43:29;4.93;;;3.45;;
25279;SDS011;13225;47.804;12.116;2023-05-29T14:45:54;5.45;;;3.92;;
25279;SDS011;13225;47.804;12.116;2023-05-29T14:48:20;6.45;;;3.78;;
25279;SDS011;13225;47.804;12.116;2023-05-29T14:50:46;6.55;;;3.78;;
25279;SDS011;13225;47.804;12.116;2023-05-29T14:53:11;5.47;;;3.35;;
25279;SDS011;13225;47.804;12.116;2023-05-29T14:55:37;5.25;;;3.75;;